sensor_id;sensor_type;location;lat;lon;timestamp;pressure;altitude;pressure_sealevel;temperature;humidity
71105;BME280;58760;48.716;8.962;2022-07-17T00:00:12;97286.22;;;16.22;56.71
71105;BME280;58760;48.716;8.962;2022-07-17T00:02:38;97287.44;;;16.20;56.44
71105;BME280;58760;48.716;8.962;2022-07-17T00:05:04;97284.75;;;16.20;56.42
71105;BME280;58760;48.716;8.962;2022-07-17T00:07:29;97288.09;;;16.22;56.64
71105;BME280;58760;48.716;8.962;2022-07-17T00:09:55;97283.06;;;16.12;56.85
71105;BME280;58760;48.716;8.962;2022-07-17T00:12:20;97291.94;;;15.98;57.35
71105;BME280;58760;48.716;8.962;2022-07-17T00:14:46;97284.47;;;15.94;57.46
71105;BME280;58760;48.716;8.962;2022-07-17T00:17:11;97279.63;;;16.04;58.08
71105;BME280;58760;48.716;8.962;2022-07-17T00:19:37;97286.38;;;16.00;58.63
71105;BME280;58760;48.716;8.962;2022-07-17T00:22:03;97277.25;;;16.09;58.08
71105;BME280;58760;48.716;8.962;2022-07-17T00:24:28;97279.03;;;15.87;58.71
71105;BME280;58760;48.716;8.962;2022-07-17T00:26:54;97276.84;;;15.76;59.70
71105;BME280;58760;48.716;8.962;2022-07-17T00:29:19;97277.69;;;15.77;59.58
71105;BME280;58760;48.716;8.962;2022-07-17T00:31:45;97283.41;;;15.74;59.07
71105;BME280;58760;48.716;8.962;2022-07-17T00:34:11;97274.09;;;15.69;59.10
71105;BME280;58760;48.716;8.962;2022-07-17T00:36:37;97271.88;;;15.58;59.09
71105;BME280;58760;48.716;8.962;2022-07-17T00:39:03;97275.00;;;15.47;59.23
71105;BME280;58760;48.716;8.962;2022-07-17T00:41:29;97270.72;;;15.38;59.75
71105;BME280;58760;48.716;8.962;2022-07-17T00:43:56;97276.91;;;15.39;60.98
71105;BME280;58760;48.716;8.962;2022-07-17T00:46:28;97282.09;;;15.40;61.32
71105;BME280;58760;48.716;8.962;2022-07-17T00:48:53;97280.44;;;15.39;61.37
71105;BME280;58760;48.716;8.962;2022-07-17T00:51:19;97277.59;;;15.41;60.42
71105;BME280;58760;48.716;8.962;2022-07-17T00:53:44;97283.47;;;15.36;60.44
71105;BME280;58760;48.716;8.962;2022-07-17T00:56:12;97280.06;;;15.28;60.70
71105;BME280;58760;48.716;8.962;2022-07-17T00:58:38;97279.69;;;15.31;60.56
71105;BME280;58760;48.716;8.962;2022-07-17T01:01:05;97278.66;;;15.32;60.49
71105;BME280;58760;48.716;8.962;2022-07-17T01:03:33;97275.72;;;15.27;60.37
71105;BME280;58760;48.716;8.962;2022-07-17T01:05:59;97278.03;;;15.15;60.81
71105;BME280;58760;48.716;8.962;2022-07-17T01:08:24;97280.78;;;15.07;60.97
71105;BME280;58760;48.716;8.962;2022-07-17T01:10:50;97274.69;;;14.98;61.00
71105;BME280;58760;48.716;8.962;2022-07-17T01:13:16;97274.38;;;14.93;61.44
71105;BME280;58760;48.716;8.962;2022-07-17T01:15:42;97272.75;;;14.92;61.37
71105;BME280;58760;48.716;8.962;2022-07-17T01:18:10;97267.47;;;14.99;61.03
71105;BME280;58760;48.716;8.962;2022-07-17T01:20:37;97271.34;;;14.96;61.26
71105;BME280;58760;48.716;8.962;2022-07-17T01:23:04;97271.19;;;14.98;61.40
71105;BME280;58760;48.716;8.962;2022-07-17T01:25:30;97278.16;;;14.99;60.88
71105;BME280;58760;48.716;8.962;2022-07-17T01:27:55;97269.50;;;14.97;60.54
71105;BME280;58760;48.716;8.962;2022-07-17T01:30:21;97275.50;;;14.99;60.58
71105;BME280;58760;48.716;8.962;2022-07-17T01:32:47;97271.19;;;14.98;60.60
71105;BME280;58760;48.716;8.962;2022-07-17T01:35:13;97280.19;;;14.97;61.79
71105;BME280;58760;48.716;8.962;2022-07-17T01:37:40;97274.28;;;14.87;61.64
71105;BME280;58760;48.716;8.962;2022-07-17T01:40:07;97273.25;;;14.50;63.01
71105;BME280;58760;48.716;8.962;2022-07-17T01:42:34;97271.84;;;14.40;64.32
71105;BME280;58760;48.716;8.962;2022-07-17T01:44:59;97276.00;;;14.42;64.14
71105;BME280;58760;48.716;8.962;2022-07-17T01:47:25;97273.34;;;14.42;64.83
71105;BME280;58760;48.716;8.962;2022-07-17T01:49:53;97274.06;;;14.28;63.89
71105;BME280;58760;48.716;8.962;2022-07-17T01:52:19;97276.44;;;14.23;64.14
71105;BME280;58760;48.716;8.962;2022-07-17T01:54:45;97280.88;;;14.31;64.33
71105;BME280;58760;48.716;8.962;2022-07-17T01:57:11;97281.72;;;14.31;64.26
71105;BME280;58760;48.716;8.962;2022-07-17T01:59:38;97280.72;;;14.32;65.20
71105;BME280;58760;48.716;8.962;2022-07-17T02:02:04;97276.34;;;14.39;64.99
71105;BME280;58760;48.716;8.962;2022-07-17T02:04:34;97272.84;;;14.39;65.33
71105;BME280;58760;48.716;8.962;2022-07-17T02:07:00;97273.00;;;14.37;64.36
71105;BME280;58760;48.716;8.962;2022-07-17T02:09:25;97280.69;;;14.40;64.42
71105;BME280;58760;48.716;8.962;2022-07-17T02:11:51;97267.16;;;14.42;64.09
71105;BME280;58760;48.716;8.962;2022-07-17T02:14:16;97267.69;;;14.37;63.89
71105;BME280;58760;48.716;8.962;2022-07-17T02:16:42;97267.72;;;14.29;64.07
71105;BME280;58760;48.716;8.962;2022-07-17T02:19:08;97261.63;;;14.21;64.16
71105;BME280;58760;48.716;8.962;2022-07-17T02:21:34;97256.16;;;14.14;64.17
71105;BME280;58760;48.716;8.962;2022-07-17T02:23:59;97248.81;;;14.08;63.94
71105;BME280;58760;48.716;8.962;2022-07-17T02:26:25;97244.88;;;14.04;64.12
71105;BME280;58760;48.716;8.962;2022-07-17T02:28:50;97259.09;;;14.19;64.28
71105;BME280;58760;48.716;8.962;2022-07-17T02:31:15;97252.81;;;14.12;64.63
71105;BME280;58760;48.716;8.962;2022-07-17T02:33:41;97251.22;;;14.03;64.33
71105;BME280;58760;48.716;8.962;2022-07-17T02:36:06;97254.03;;;14.01;65.24
71105;BME280;58760;48.716;8.962;2022-07-17T02:38:32;97263.94;;;13.93;65.56
71105;BME280;58760;48.716;8.962;2022-07-17T02:40:57;97263.94;;;13.93;64.13
71105;BME280;58760;48.716;8.962;2022-07-17T02:43:22;97266.59;;;14.01;63.89
71105;BME280;58760;48.716;8.962;2022-07-17T02:45:48;97263.75;;;13.63;65.19
71105;BME280;58760;48.716;8.962;2022-07-17T02:48:13;97257.50;;;13.48;65.70
71105;BME280;58760;48.716;8.962;2022-07-17T02:50:38;97268.66;;;13.52;66.60
71105;BME280;58760;48.716;8.962;2022-07-17T02:53:04;97262.09;;;13.62;66.92
71105;BME280;58760;48.716;8.962;2022-07-17T02:55:29;97252.97;;;13.57;66.18
71105;BME280;58760;48.716;8.962;2022-07-17T02:57:55;97256.94;;;13.61;66.19
71105;BME280;58760;48.716;8.962;2022-07-17T03:00:20;97252.94;;;13.65;66.33
71105;BME280;58760;48.716;8.962;2022-07-17T03:02:46;97262.28;;;13.61;66.46
71105;BME280;58760;48.716;8.962;2022-07-17T03:05:13;97260.13;;;13.56;66.22
71105;BME280;58760;48.716;8.962;2022-07-17T03:07:41;97260.81;;;13.50;66.13
71105;BME280;58760;48.716;8.962;2022-07-17T03:10:08;97266.47;;;13.55;66.10
71105;BME280;58760;48.716;8.962;2022-07-17T03:12:33;97259.97;;;13.58;66.34
71105;BME280;58760;48.716;8.962;2022-07-17T03:14:59;97259.06;;;13.66;65.24
71105;BME280;58760;48.716;8.962;2022-07-17T03:17:25;97253.44;;;13.60;65.49
71105;BME280;58760;48.716;8.962;2022-07-17T03:19:51;97248.81;;;13.54;65.71
71105;BME280;58760;48.716;8.962;2022-07-17T03:22:16;97254.34;;;13.45;65.78
71105;BME280;58760;48.716;8.962;2022-07-17T03:24:42;97249.53;;;13.40;66.51
71105;BME280;58760;48.716;8.962;2022-07-17T03:27:07;97252.34;;;13.47;66.78
71105;BME280;58760;48.716;8.962;2022-07-17T03:29:32;97240.81;;;13.46;67.13
71105;BME280;58760;48.716;8.962;2022-07-17T03:31:58;97250.16;;;13.50;66.75
71105;BME280;58760;48.716;8.962;2022-07-17T03:34:23;97260.16;;;13.48;66.02
71105;BME280;58760;48.716;8.962;2022-07-17T03:36:49;97257.50;;;13.48;65.96
71105;BME280;58760;48.716;8.962;2022-07-17T03:39:14;97253.50;;;13.44;65.79
71105;BME280;58760;48.716;8.962;2022-07-17T03:41:40;97253.38;;;13.38;65.58
71105;BME280;58760;48.716;8.962;2022-07-17T03:44:05;97242.22;;;13.34;65.85
71105;BME280;58760;48.716;8.962;2022-07-17T03:46:31;97242.91;;;13.28;66.05
71105;BME280;58760;48.716;8.962;2022-07-17T03:48:56;97251.75;;;13.29;66.29
71105;BME280;58760;48.716;8.962;2022-07-17T03:51:22;97249.44;;;13.26;66.74
71105;BME280;58760;48.716;8.962;2022-07-17T03:53:47;97255.59;;;13.18;66.76
71105;BME280;58760;48.716;8.962;2022-07-17T03:56:12;97246.78;;;13.18;67.19
71105;BME280;58760;48.716;8.962;2022-07-17T03:58:38;97253.44;;;13.22;66.83
71105;BME280;58760;48.716;8.962;2022-07-17T04:01:03;97250.59;;;13.23;66.76
71105;BME280;58760;48.716;8.962;2022-07-17T04:03:29;97245.72;;;13.27;66.55
71105;BME280;58760;48.716;8.962;2022-07-17T04:05:54;97257.56;;;13.24;66.62
71105;BME280;58760;48.716;8.962;2022-07-17T04:08:19;97257.09;;;13.21;67.25
71105;BME280;58760;48.716;8.962;2022-07-17T04:10:45;97259.25;;;13.25;67.18
71105;BME280;58760;48.716;8.962;2022-07-17T04:13:11;97259.53;;;13.38;67.94
71105;BME280;58760;48.716;8.962;2022-07-17T04:15:36;97257.84;;;13.45;66.90
71105;BME280;58760;48.716;8.962;2022-07-17T04:18:18;97270.00;;;13.40;68.29
71105;BME280;58760;48.716;8.962;2022-07-17T04:20:43;97266.84;;;13.36;68.09
71105;BME280;58760;48.716;8.962;2022-07-17T04:23:09;97270.06;;;13.32;68.03
71105;BME280;58760;48.716;8.962;2022-07-17T04:25:34;97266.59;;;13.23;68.31
71105;BME280;58760;48.716;8.962;2022-07-17T04:28:00;97272.09;;;13.14;68.78
71105;BME280;58760;48.716;8.962;2022-07-17T04:30:26;97262.28;;;13.14;69.29
71105;BME280;58760;48.716;8.962;2022-07-17T04:32:51;97271.25;;;13.21;68.90
71105;BME280;58760;48.716;8.962;2022-07-17T04:35:17;97277.41;;;13.30;67.82
71105;BME280;58760;48.716;8.962;2022-07-17T04:37:42;97279.59;;;13.18;68.02
71105;BME280;58760;48.716;8.962;2022-07-17T04:40:08;97273.91;;;13.21;68.07
71105;BME280;58760;48.716;8.962;2022-07-17T04:42:34;97279.94;;;13.23;68.35
71105;BME280;58760;48.716;8.962;2022-07-17T04:44:59;97268.59;;;13.21;69.26
71105;BME280;58760;48.716;8.962;2022-07-17T04:47:25;97261.72;;;13.27;67.96
71105;BME280;58760;48.716;8.962;2022-07-17T04:49:50;97270.91;;;13.32;68.51
71105;BME280;58760;48.716;8.962;2022-07-17T04:52:16;97265.38;;;13.42;67.93
71105;BME280;58760;48.716;8.962;2022-07-17T04:54:41;97270.97;;;13.55;68.28
71105;BME280;58760;48.716;8.962;2022-07-17T04:57:07;97272.13;;;13.60;67.34
71105;BME280;58760;48.716;8.962;2022-07-17T04:59:32;97273.59;;;13.63;68.12
71105;BME280;58760;48.716;8.962;2022-07-17T05:01:58;97274.09;;;13.67;67.77
71105;BME280;58760;48.716;8.962;2022-07-17T05:04:23;97271.75;;;13.72;68.45
71105;BME280;58760;48.716;8.962;2022-07-17T05:06:48;97275.06;;;13.74;69.32
71105;BME280;58760;48.716;8.962;2022-07-17T05:09:14;97280.75;;;13.71;69.10
71105;BME280;58760;48.716;8.962;2022-07-17T05:11:39;97281.22;;;13.74;68.61
71105;BME280;58760;48.716;8.962;2022-07-17T05:14:05;97279.34;;;13.83;68.54
71105;BME280;58760;48.716;8.962;2022-07-17T05:16:30;97284.28;;;13.94;68.70
71105;BME280;58760;48.716;8.962;2022-07-17T05:18:55;97281.91;;;13.99;69.14
71105;BME280;58760;48.716;8.962;2022-07-17T05:21:21;97284.22;;;14.02;67.84
71105;BME280;58760;48.716;8.962;2022-07-17T05:23:46;97277.88;;;14.11;67.34
71105;BME280;58760;48.716;8.962;2022-07-17T05:26:12;97278.09;;;14.24;67.78
71105;BME280;58760;48.716;8.962;2022-07-17T05:28:37;97275.59;;;14.23;68.74
71105;BME280;58760;48.716;8.962;2022-07-17T05:31:02;97281.22;;;14.28;68.77
71105;BME280;58760;48.716;8.962;2022-07-17T05:33:28;97274.06;;;14.28;69.45
71105;BME280;58760;48.716;8.962;2022-07-17T05:35:53;97274.72;;;14.30;70.26
71105;BME280;58760;48.716;8.962;2022-07-17T05:38:19;97287.75;;;14.33;70.31
71105;BME280;58760;48.716;8.962;2022-07-17T05:40:44;97284.66;;;14.44;70.68
71105;BME280;58760;48.716;8.962;2022-07-17T05:43:09;97286.44;;;14.52;68.32
71105;BME280;58760;48.716;8.962;2022-07-17T05:45:35;97289.81;;;14.69;68.19
71105;BME280;58760;48.716;8.962;2022-07-17T05:48:00;97283.75;;;14.75;66.22
71105;BME280;58760;48.716;8.962;2022-07-17T05:50:26;97282.66;;;14.84;65.46
71105;BME280;58760;48.716;8.962;2022-07-17T05:52:51;97282.25;;;14.95;66.21
71105;BME280;58760;48.716;8.962;2022-07-17T05:55:16;97289.78;;;15.06;66.92
71105;BME280;58760;48.716;8.962;2022-07-17T05:57:42;97288.72;;;15.15;66.98
71105;BME280;58760;48.716;8.962;2022-07-17T06:00:08;97287.63;;;15.24;66.93
71105;BME280;58760;48.716;8.962;2022-07-17T06:02:33;97286.50;;;15.33;67.17
71105;BME280;58760;48.716;8.962;2022-07-17T06:04:59;97288.06;;;15.42;65.12
71105;BME280;58760;48.716;8.962;2022-07-17T06:07:24;97287.66;;;15.53;64.23
71105;BME280;58760;48.716;8.962;2022-07-17T06:09:50;97285.50;;;15.78;62.46
71105;BME280;58760;48.716;8.962;2022-07-17T06:12:15;97292.41;;;15.87;63.23
71105;BME280;58760;48.716;8.962;2022-07-17T06:14:40;97297.22;;;15.92;63.42
71105;BME280;58760;48.716;8.962;2022-07-17T06:17:06;97294.00;;;15.96;63.04
71105;BME280;58760;48.716;8.962;2022-07-17T06:19:31;97292.19;;;16.03;62.71
71105;BME280;58760;48.716;8.962;2022-07-17T06:21:56;97287.94;;;16.09;62.66
71105;BME280;58760;48.716;8.962;2022-07-17T06:24:22;97287.06;;;16.23;61.00
71105;BME280;58760;48.716;8.962;2022-07-17T06:26:47;97295.81;;;16.32;60.61
71105;BME280;58760;48.716;8.962;2022-07-17T06:29:12;97300.50;;;16.44;59.73
71105;BME280;58760;48.716;8.962;2022-07-17T06:31:38;97301.16;;;16.67;58.43
71105;BME280;58760;48.716;8.962;2022-07-17T06:34:03;97295.28;;;16.79;59.77
71105;BME280;58760;48.716;8.962;2022-07-17T06:36:29;97292.59;;;16.79;59.34
71105;BME280;58760;48.716;8.962;2022-07-17T06:38:54;97295.38;;;16.92;57.94
71105;BME280;58760;48.716;8.962;2022-07-17T06:41:19;97301.19;;;16.95;58.81
71105;BME280;58760;48.716;8.962;2022-07-17T06:43:45;97295.09;;;17.08;58.16
71105;BME280;58760;48.716;8.962;2022-07-17T06:46:10;97303.13;;;17.29;57.17
71105;BME280;58760;48.716;8.962;2022-07-17T06:48:36;97298.19;;;17.33;57.87
71105;BME280;58760;48.716;8.962;2022-07-17T06:51:01;97299.66;;;17.35;55.71
71105;BME280;58760;48.716;8.962;2022-07-17T06:53:26;97298.91;;;17.48;55.47
71105;BME280;58760;48.716;8.962;2022-07-17T06:55:52;97302.19;;;17.50;56.14
71105;BME280;58760;48.716;8.962;2022-07-17T06:58:17;97303.53;;;17.60;56.14
71105;BME280;58760;48.716;8.962;2022-07-17T07:00:42;97302.94;;;17.58;57.00
71105;BME280;58760;48.716;8.962;2022-07-17T07:03:08;97304.56;;;17.59;56.10
71105;BME280;58760;48.716;8.962;2022-07-17T07:05:34;97302.13;;;17.64;54.71
71105;BME280;58760;48.716;8.962;2022-07-17T07:07:59;97306.94;;;17.75;52.73
71105;BME280;58760;48.716;8.962;2022-07-17T07:10:25;97303.66;;;17.80;53.88
71105;BME280;58760;48.716;8.962;2022-07-17T07:12:51;97310.91;;;17.86;53.64
71105;BME280;58760;48.716;8.962;2022-07-17T07:15:16;97308.56;;;18.11;50.11
71105;BME280;58760;48.716;8.962;2022-07-17T07:17:42;97309.84;;;18.28;50.33
71105;BME280;58760;48.716;8.962;2022-07-17T07:20:07;97314.91;;;18.51;50.51
71105;BME280;58760;48.716;8.962;2022-07-17T07:22:33;97309.56;;;18.77;48.56
71105;BME280;58760;48.716;8.962;2022-07-17T07:24:59;97308.97;;;18.88;48.00
71105;BME280;58760;48.716;8.962;2022-07-17T07:27:24;97306.88;;;18.84;48.65
71105;BME280;58760;48.716;8.962;2022-07-17T07:29:50;97313.53;;;18.94;48.76
71105;BME280;58760;48.716;8.962;2022-07-17T07:32:15;97308.34;;;19.06;48.81
71105;BME280;58760;48.716;8.962;2022-07-17T07:34:41;97312.50;;;19.28;48.91
71105;BME280;58760;48.716;8.962;2022-07-17T07:37:06;97310.19;;;19.38;48.39
71105;BME280;58760;48.716;8.962;2022-07-17T07:39:32;97300.88;;;19.67;47.76
71105;BME280;58760;48.716;8.962;2022-07-17T07:41:57;97310.16;;;19.71;47.91
71105;BME280;58760;48.716;8.962;2022-07-17T07:44:23;97301.22;;;19.83;47.97
71105;BME280;58760;48.716;8.962;2022-07-17T07:46:49;97299.97;;;19.93;47.64
71105;BME280;58760;48.716;8.962;2022-07-17T07:49:14;97299.53;;;19.96;47.71
71105;BME280;58760;48.716;8.962;2022-07-17T07:51:41;97306.75;;;20.02;47.67
71105;BME280;58760;48.716;8.962;2022-07-17T07:54:06;97305.25;;;20.19;47.94
71105;BME280;58760;48.716;8.962;2022-07-17T07:56:32;97307.13;;;20.18;47.60
71105;BME280;58760;48.716;8.962;2022-07-17T07:58:57;97303.41;;;20.06;48.24
71105;BME280;58760;48.716;8.962;2022-07-17T08:01:23;97304.41;;;20.18;48.07
71105;BME280;58760;48.716;8.962;2022-07-17T08:03:48;97307.91;;;20.25;47.89
71105;BME280;58760;48.716;8.962;2022-07-17T08:06:13;97301.47;;;20.33;48.11
71105;BME280;58760;48.716;8.962;2022-07-17T08:08:40;97308.22;;;20.49;47.14
71105;BME280;58760;48.716;8.962;2022-07-17T08:11:05;97312.09;;;20.59;46.32
71105;BME280;58760;48.716;8.962;2022-07-17T08:13:31;97309.69;;;20.51;46.74
71105;BME280;58760;48.716;8.962;2022-07-17T08:15:57;97307.75;;;20.58;46.58
71105;BME280;58760;48.716;8.962;2022-07-17T08:18:24;97308.09;;;21.00;45.12
71105;BME280;58760;48.716;8.962;2022-07-17T08:20:51;97311.00;;;20.98;44.95
71105;BME280;58760;48.716;8.962;2022-07-17T08:23:16;97306.88;;;20.96;44.94
71105;BME280;58760;48.716;8.962;2022-07-17T08:25:41;97314.97;;;21.27;43.47
71105;BME280;58760;48.716;8.962;2022-07-17T08:28:07;97316.19;;;21.31;43.66
71105;BME280;58760;48.716;8.962;2022-07-17T08:30:32;97317.13;;;21.18;46.28
71105;BME280;58760;48.716;8.962;2022-07-17T08:33:01;97309.28;;;21.35;43.85
71105;BME280;58760;48.716;8.962;2022-07-17T08:35:27;97308.34;;;21.48;42.49
71105;BME280;58760;48.716;8.962;2022-07-17T08:37:52;97308.78;;;21.45;42.58
71105;BME280;58760;48.716;8.962;2022-07-17T08:40:23;97313.03;;;21.59;41.62
71105;BME280;58760;48.716;8.962;2022-07-17T08:42:50;97307.78;;;21.64;42.50
71105;BME280;58760;48.716;8.962;2022-07-17T08:45:15;97305.06;;;21.82;41.36
71105;BME280;58760;48.716;8.962;2022-07-17T08:47:41;97310.22;;;21.90;40.39
71105;BME280;58760;48.716;8.962;2022-07-17T08:50:09;97310.25;;;21.83;42.25
71105;BME280;58760;48.716;8.962;2022-07-17T08:52:37;97305.75;;;21.77;42.62
71105;BME280;58760;48.716;8.962;2022-07-17T08:55:03;97320.13;;;21.96;39.35
71105;BME280;58760;48.716;8.962;2022-07-17T08:57:28;97310.75;;;22.17;39.06
71105;BME280;58760;48.716;8.962;2022-07-17T08:59:54;97309.41;;;21.89;40.84
71105;BME280;58760;48.716;8.962;2022-07-17T09:02:19;97318.84;;;21.99;40.58
71105;BME280;58760;48.716;8.962;2022-07-17T09:04:53;97319.53;;;22.12;40.02
71105;BME280;58760;48.716;8.962;2022-07-17T09:07:18;97310.13;;;22.15;39.77
71105;BME280;58760;48.716;8.962;2022-07-17T09:09:52;97305.47;;;22.22;38.99
71105;BME280;58760;48.716;8.962;2022-07-17T09:12:22;97320.88;;;22.39;38.37
71105;BME280;58760;48.716;8.962;2022-07-17T09:14:48;97315.44;;;22.39;38.30
71105;BME280;58760;48.716;8.962;2022-07-17T09:17:14;97317.91;;;22.41;38.42
71105;BME280;58760;48.716;8.962;2022-07-17T09:19:43;97318.53;;;22.43;39.03
71105;BME280;58760;48.716;8.962;2022-07-17T09:24:48;97307.47;;;22.45;39.32
71105;BME280;58760;48.716;8.962;2022-07-17T09:27:29;97308.41;;;22.68;38.31
71105;BME280;58760;48.716;8.962;2022-07-17T09:32:27;97318.09;;;22.76;37.63
71105;BME280;58760;48.716;8.962;2022-07-17T09:34:55;97314.41;;;22.70;38.45
71105;BME280;58760;48.716;8.962;2022-07-17T09:37:26;97315.03;;;22.72;38.42
71105;BME280;58760;48.716;8.962;2022-07-17T09:39:52;97318.97;;;22.88;38.39
71105;BME280;58760;48.716;8.962;2022-07-17T09:42:23;97303.25;;;23.08;36.87
71105;BME280;58760;48.716;8.962;2022-07-17T09:47:22;97303.47;;;23.07;37.14
71105;BME280;58760;48.716;8.962;2022-07-17T09:49:48;97307.63;;;23.21;36.85
71105;BME280;58760;48.716;8.962;2022-07-17T09:52:15;97313.34;;;23.13;38.00
71105;BME280;58760;48.716;8.962;2022-07-17T09:54:42;97303.72;;;23.05;37.43
71105;BME280;58760;48.716;8.962;2022-07-17T09:57:09;97304.75;;;23.16;37.45
71105;BME280;58760;48.716;8.962;2022-07-17T09:59:37;97303.81;;;23.22;36.89
71105;BME280;58760;48.716;8.962;2022-07-17T10:02:03;97306.72;;;23.62;35.29
71105;BME280;58760;48.716;8.962;2022-07-17T10:04:28;97306.72;;;23.62;36.71
71105;BME280;58760;48.716;8.962;2022-07-17T10:06:54;97311.66;;;23.65;35.59
71105;BME280;58760;48.716;8.962;2022-07-17T10:09:20;97312.75;;;23.64;36.24
71105;BME280;58760;48.716;8.962;2022-07-17T10:11:46;97310.97;;;23.69;35.42
71105;BME280;58760;48.716;8.962;2022-07-17T10:14:13;97311.53;;;23.71;34.85
71105;BME280;58760;48.716;8.962;2022-07-17T10:16:40;97304.13;;;23.67;35.82
71105;BME280;58760;48.716;8.962;2022-07-17T10:19:20;97298.47;;;23.68;36.26
71105;BME280;58760;48.716;8.962;2022-07-17T10:21:59;97298.22;;;23.81;34.78
71105;BME280;58760;48.716;8.962;2022-07-17T10:24:26;97293.84;;;23.80;35.66
71105;BME280;58760;48.716;8.962;2022-07-17T10:26:51;97294.91;;;23.91;34.79
71105;BME280;58760;48.716;8.962;2022-07-17T10:29:36;97296.66;;;23.97;35.12
71105;BME280;58760;48.716;8.962;2022-07-17T10:34:52;97290.13;;;24.10;33.70
71105;BME280;58760;48.716;8.962;2022-07-17T10:37:23;97288.28;;;23.99;34.26
71105;BME280;58760;48.716;8.962;2022-07-17T10:45:26;97287.03;;;24.41;32.71
71105;BME280;58760;48.716;8.962;2022-07-17T10:50:44;97284.06;;;24.71;32.69
71105;BME280;58760;48.716;8.962;2022-07-17T10:53:19;97278.50;;;24.77;31.77
71105;BME280;58760;48.716;8.962;2022-07-17T10:56:06;97282.59;;;24.80;30.60
71105;BME280;58760;48.716;8.962;2022-07-17T11:01:13;97284.19;;;24.36;29.23
71105;BME280;58760;48.716;8.962;2022-07-17T11:03:44;97285.41;;;24.57;28.76
71105;BME280;58760;48.716;8.962;2022-07-17T11:06:20;97276.25;;;24.46;31.01
71105;BME280;58760;48.716;8.962;2022-07-17T11:08:54;97275.72;;;24.61;30.80
71105;BME280;58760;48.716;8.962;2022-07-17T11:11:23;97276.78;;;24.88;29.56
71105;BME280;58760;48.716;8.962;2022-07-17T11:13:49;97270.56;;;25.21;29.99
71105;BME280;58760;48.716;8.962;2022-07-17T11:16:28;97275.50;;;25.24;29.95
71105;BME280;58760;48.716;8.962;2022-07-17T11:18:55;97270.72;;;25.31;28.33
71105;BME280;58760;48.716;8.962;2022-07-17T11:21:21;97267.56;;;25.72;31.16
71105;BME280;58760;48.716;8.962;2022-07-17T11:23:53;97265.75;;;25.78;30.17
71105;BME280;58760;48.716;8.962;2022-07-17T11:26:19;97266.78;;;25.93;29.31
71105;BME280;58760;48.716;8.962;2022-07-17T11:28:46;97268.09;;;25.91;27.17
71105;BME280;58760;48.716;8.962;2022-07-17T11:33:49;97268.19;;;26.18;27.89
71105;BME280;58760;48.716;8.962;2022-07-17T11:36:27;97267.72;;;26.04;26.36
71105;BME280;58760;48.716;8.962;2022-07-17T11:38:55;97276.03;;;26.36;25.37
71105;BME280;58760;48.716;8.962;2022-07-17T11:41:21;97268.84;;;26.08;25.80
71105;BME280;58760;48.716;8.962;2022-07-17T11:43:46;97266.28;;;26.18;25.56
71105;BME280;58760;48.716;8.962;2022-07-17T11:46:14;97261.41;;;26.42;27.28
71105;BME280;58760;48.716;8.962;2022-07-17T11:48:41;97268.97;;;26.62;26.88
71105;BME280;58760;48.716;8.962;2022-07-17T11:51:07;97262.75;;;26.93;24.46
71105;BME280;58760;48.716;8.962;2022-07-17T11:53:37;97253.84;;;27.34;23.20
71105;BME280;58760;48.716;8.962;2022-07-17T11:56:03;97253.25;;;27.64;24.05
71105;BME280;58760;48.716;8.962;2022-07-17T11:58:41;97260.97;;;28.29;23.20
71105;BME280;58760;48.716;8.962;2022-07-17T12:01:07;97256.53;;;29.21;23.98
71105;BME280;58760;48.716;8.962;2022-07-17T12:03:32;97253.66;;;30.17;20.25
71105;BME280;58760;48.716;8.962;2022-07-17T12:05:58;97250.31;;;30.30;19.99
71105;BME280;58760;48.716;8.962;2022-07-17T12:08:23;97251.34;;;30.49;19.18
71105;BME280;58760;48.716;8.962;2022-07-17T12:11:08;97249.72;;;30.38;20.84
71105;BME280;58760;48.716;8.962;2022-07-17T12:13:41;97245.25;;;30.57;20.68
71105;BME280;58760;48.716;8.962;2022-07-17T12:21:21;97236.56;;;31.85;19.63
71105;BME280;58760;48.716;8.962;2022-07-17T12:23:56;97235.03;;;31.74;19.95
71105;BME280;58760;48.716;8.962;2022-07-17T12:26:22;97239.25;;;31.90;18.81
71105;BME280;58760;48.716;8.962;2022-07-17T12:28:47;97240.22;;;32.04;19.92
71105;BME280;58760;48.716;8.962;2022-07-17T12:31:13;97240.72;;;32.73;21.45
71105;BME280;58760;48.716;8.962;2022-07-17T12:33:40;97234.38;;;33.28;19.71
71105;BME280;58760;48.716;8.962;2022-07-17T12:36:06;97237.59;;;33.81;19.34
71105;BME280;58760;48.716;8.962;2022-07-17T12:38:31;97236.03;;;34.02;17.41
71105;BME280;58760;48.716;8.962;2022-07-17T12:40:57;97244.19;;;33.80;19.34
71105;BME280;58760;48.716;8.962;2022-07-17T12:43:24;97238.84;;;34.30;17.35
71105;BME280;58760;48.716;8.962;2022-07-17T12:45:49;97233.28;;;34.02;18.68
71105;BME280;58760;48.716;8.962;2022-07-17T12:48:15;97227.69;;;34.35;17.86
71105;BME280;58760;48.716;8.962;2022-07-17T12:50:40;97231.47;;;34.39;17.29
71105;BME280;58760;48.716;8.962;2022-07-17T12:53:06;97235.06;;;34.26;19.25
71105;BME280;58760;48.716;8.962;2022-07-17T12:55:32;97234.09;;;34.44;16.42
71105;BME280;58760;48.716;8.962;2022-07-17T12:57:57;97223.59;;;34.46;16.71
71105;BME280;58760;48.716;8.962;2022-07-17T13:00:23;97232.81;;;34.14;15.76
71105;BME280;58760;48.716;8.962;2022-07-17T13:02:49;97235.03;;;34.39;17.84
71105;BME280;58760;48.716;8.962;2022-07-17T13:05:15;97225.59;;;34.54;17.53
71105;BME280;58760;48.716;8.962;2022-07-17T13:07:40;97226.66;;;34.94;15.70
71105;BME280;58760;48.716;8.962;2022-07-17T13:10:06;97236.56;;;34.32;16.06
71105;BME280;58760;48.716;8.962;2022-07-17T13:12:32;97235.88;;;34.12;16.28
71105;BME280;58760;48.716;8.962;2022-07-17T13:14:57;97229.34;;;34.36;15.98
71105;BME280;58760;48.716;8.962;2022-07-17T13:17:23;97224.16;;;34.21;15.38
71105;BME280;58760;48.716;8.962;2022-07-17T13:19:48;97216.38;;;34.23;14.98
71105;BME280;58760;48.716;8.962;2022-07-17T13:22:14;97215.22;;;33.96;15.39
71105;BME280;58760;48.716;8.962;2022-07-17T13:24:39;97216.66;;;33.94;15.86